createdAt,value
2022-12-09T04:00:36.709Z,1.20
2022-12-09T04:30:45.892Z,1.25
2022-12-09T05:00:51.046Z,1.16
2022-12-09T05:30:55.375Z,0.86
2022-12-09T06:01:01.336Z,1.02
2022-12-09T06:31:06.007Z,1.16
2022-12-09T07:01:13.741Z,1.36
2022-12-09T07:31:23.738Z,1.50
2022-12-09T08:01:30.433Z,1.62
2022-12-09T08:31:40.592Z,1.70
2022-12-09T09:01:46.795Z,1.85
2022-12-09T09:31:54.492Z,2.02
2022-12-09T10:02:07.618Z,2.77
2022-12-09T10:32:17.008Z,2.47
2022-12-09T11:02:23.771Z,2.53
2022-12-09T11:32:28.447Z,2.69
2022-12-09T12:02:37.989Z,5.39
2022-12-09T12:33:40.726Z,8.34
2022-12-09T13:03:25.032Z,6.03
2022-12-09T13:33:39.973Z,4.25
2022-12-09T14:03:53.451Z,3.15
2022-12-09T14:33:57.815Z,1.89
2022-12-09T15:04:02.274Z,1.51
2022-12-09T15:34:17.610Z,0.95
2022-12-09T16:04:25.599Z,0.76
2022-12-09T16:34:29.883Z,0.50
2022-12-09T17:04:34.705Z,0.38
2022-12-09T17:34:41.522Z,0.49
2022-12-09T18:04:45.772Z,0.41
2022-12-09T18:34:49.981Z,0.40
2022-12-09T19:04:54.202Z,0.20
2022-12-09T19:34:58.609Z,-0.41
2022-12-09T20:05:02.839Z,-0.64
2022-12-09T20:35:08.850Z,-0.88
2022-12-09T21:05:13.622Z,-0.98
2022-12-09T21:35:17.974Z,-1.13
2022-12-09T22:05:22.825Z,-1.24
2022-12-09T22:35:28.433Z,-0.94
2022-12-09T23:05:34.939Z,-0.53
2022-12-09T23:35:40.058Z,-0.18
